createdAt,value
2017-08-22T00:00:23.542Z,1.50
2017-08-22T00:02:51.017Z,1.57
2017-08-22T00:05:18.487Z,1.87
2017-08-22T00:07:45.953Z,1.67
2017-08-22T00:10:13.397Z,1.90
2017-08-22T00:12:40.859Z,1.70
2017-08-22T00:15:08.310Z,1.67
2017-08-22T00:17:35.762Z,1.80
2017-08-22T00:20:03.208Z,2.20
2017-08-22T00:22:30.669Z,1.83
2017-08-22T00:24:58.126Z,1.87
2017-08-22T00:27:25.613Z,1.80
2017-08-22T00:29:53.057Z,1.60
2017-08-22T00:32:20.526Z,1.50
2017-08-22T00:34:47.969Z,1.53
2017-08-22T00:37:15.435Z,2.23
2017-08-22T00:39:42.901Z,2.17
2017-08-22T00:42:10.354Z,1.90
2017-08-22T00:44:37.824Z,1.50
2017-08-22T00:47:05.274Z,1.87
2017-08-22T00:49:32.726Z,1.53
2017-08-22T00:52:00.190Z,1.80
2017-08-22T00:54:27.650Z,1.40
2017-08-22T00:56:55.106Z,1.53
2017-08-22T00:59:22.566Z,1.60
2017-08-22T01:01:50.033Z,2.23
2017-08-22T01:04:17.501Z,1.53
2017-08-22T01:06:44.953Z,1.70
2017-08-22T01:09:12.409Z,1.80
2017-08-22T01:11:39.872Z,1.50
2017-08-22T01:14:07.347Z,1.13
2017-08-22T01:16:34.803Z,1.37
2017-08-22T01:19:02.242Z,1.70
2017-08-22T01:21:29.702Z,1.50
2017-08-22T01:23:57.142Z,1.60
2017-08-22T01:26:24.621Z,1.50
2017-08-22T01:28:52.069Z,1.87
2017-08-22T01:31:19.529Z,1.40
2017-08-22T01:33:46.981Z,1.30
2017-08-22T01:36:14.498Z,1.60
2017-08-22T01:38:41.962Z,1.60
2017-08-22T01:41:09.418Z,1.50
2017-08-22T01:43:36.893Z,1.37
2017-08-22T01:46:04.405Z,1.40
2017-08-22T01:48:31.876Z,1.70
2017-08-22T01:50:59.342Z,1.60
2017-08-22T01:53:26.799Z,1.70
2017-08-22T01:55:54.255Z,1.90
2017-08-22T01:58:21.733Z,1.60
2017-08-22T02:00:49.168Z,1.40
2017-08-22T02:03:16.657Z,2.10
2017-08-22T02:05:44.138Z,1.70
2017-08-22T02:08:11.590Z,1.50
2017-08-22T02:10:39.070Z,1.43
2017-08-22T02:13:06.523Z,1.50
2017-08-22T02:15:33.966Z,1.50
2017-08-22T02:18:01.422Z,1.50
2017-08-22T02:20:28.885Z,1.47
2017-08-22T02:22:56.339Z,1.80
2017-08-22T02:25:23.790Z,1.53
2017-08-22T02:27:51.262Z,1.60
2017-08-22T02:30:18.714Z,1.60
2017-08-22T02:32:46.169Z,1.50
2017-08-22T02:35:13.623Z,1.43
2017-08-22T02:38:06.155Z,1.73
2017-08-22T02:40:33.638Z,1.80
2017-08-22T02:43:01.103Z,1.53
2017-08-22T02:45:28.559Z,1.50
2017-08-22T02:47:56.010Z,1.57
2017-08-22T02:50:23.492Z,2.07
2017-08-22T02:52:50.957Z,1.50
2017-08-22T02:55:18.423Z,1.47
2017-08-22T02:57:45.875Z,1.60
2017-08-22T03:00:13.325Z,1.53
2017-08-22T03:02:40.774Z,1.53
2017-08-22T03:05:08.230Z,1.63
2017-08-22T03:07:35.699Z,1.77
2017-08-22T03:10:03.164Z,1.70
2017-08-22T03:12:30.629Z,1.40
2017-08-22T03:14:58.854Z,2.07
2017-08-22T03:17:26.303Z,1.50
2017-08-22T03:19:53.743Z,1.80
2017-08-22T03:22:21.226Z,1.30
2017-08-22T03:24:48.670Z,1.50
2017-08-22T03:27:16.166Z,1.60
2017-08-22T03:29:43.646Z,2.97
2017-08-22T03:32:11.125Z,1.70
2017-08-22T03:34:38.588Z,1.50
2017-08-22T03:37:06.063Z,1.60
2017-08-22T03:39:33.507Z,1.60
2017-08-22T03:42:00.968Z,1.50
2017-08-22T03:44:28.434Z,1.37
2017-08-22T03:46:55.878Z,1.60
2017-08-22T03:49:23.326Z,1.70
2017-08-22T03:51:50.774Z,1.70
2017-08-22T03:54:18.225Z,1.60
2017-08-22T03:56:45.683Z,1.73
2017-08-22T03:59:13.131Z,1.63
2017-08-22T04:01:40.646Z,1.67
2017-08-22T04:04:08.096Z,1.70
2017-08-22T04:06:35.576Z,1.90
2017-08-22T04:09:03.045Z,1.60
2017-08-22T04:11:30.494Z,1.50
2017-08-22T04:13:57.957Z,1.50
2017-08-22T04:16:25.414Z,1.70
2017-08-22T04:18:52.871Z,1.60
2017-08-22T04:21:20.332Z,1.30
2017-08-22T04:23:47.797Z,1.77
2017-08-22T04:26:15.299Z,1.50
2017-08-22T04:28:42.749Z,3.33
2017-08-22T04:31:10.233Z,1.63
2017-08-22T04:33:37.686Z,1.67
2017-08-22T04:36:05.135Z,1.80
2017-08-22T04:38:32.597Z,1.80
2017-08-22T04:41:00.057Z,1.50
2017-08-22T04:43:27.514Z,1.60
2017-08-22T04:45:54.971Z,1.30
2017-08-22T04:48:22.445Z,1.40
2017-08-22T04:50:49.899Z,1.60
2017-08-22T04:53:17.358Z,1.60
2017-08-22T04:55:44.947Z,1.70
2017-08-22T04:58:12.391Z,1.73
2017-08-22T05:00:39.863Z,1.63
2017-08-22T05:03:07.302Z,2.67
2017-08-22T05:05:34.786Z,1.40
2017-08-22T05:08:02.233Z,1.43
2017-08-22T05:10:29.710Z,1.33
2017-08-22T05:12:57.145Z,1.53
2017-08-22T05:15:24.617Z,1.80
2017-08-22T05:17:52.065Z,1.53
2017-08-22T05:20:19.514Z,1.57
2017-08-22T05:22:46.994Z,1.43
2017-08-22T05:25:14.433Z,1.63
2017-08-22T05:27:41.887Z,1.57
2017-08-22T05:30:09.341Z,1.43
2017-08-22T05:32:36.799Z,1.70
2017-08-22T05:35:04.249Z,1.70
2017-08-22T05:37:31.721Z,2.60
2017-08-22T05:39:59.168Z,1.67
2017-08-22T05:42:26.629Z,1.40
2017-08-22T05:44:54.110Z,1.57
2017-08-22T05:47:21.552Z,1.50
2017-08-22T05:49:49.000Z,1.87
2017-08-22T05:52:16.474Z,1.60
2017-08-22T05:54:43.917Z,1.40
2017-08-22T05:57:11.390Z,1.50
2017-08-22T05:59:38.867Z,3.40
2017-08-22T06:02:06.317Z,2.30
2017-08-22T06:04:33.758Z,1.77
2017-08-22T06:07:01.222Z,1.40
2017-08-22T06:09:29.264Z,1.50
2017-08-22T06:11:56.717Z,2.00
2017-08-22T06:14:24.175Z,1.87
2017-08-22T06:16:51.651Z,1.27
2017-08-22T06:19:19.102Z,1.40
2017-08-22T06:21:46.546Z,1.53
2017-08-22T06:24:14.016Z,1.27
2017-08-22T06:26:41.466Z,1.63
2017-08-22T06:29:08.917Z,1.40
2017-08-22T06:31:36.374Z,1.40
2017-08-22T06:34:03.854Z,1.70
2017-08-22T06:36:31.307Z,1.60
2017-08-22T06:38:58.763Z,1.53
2017-08-22T06:41:26.207Z,1.20
2017-08-22T06:43:53.667Z,1.60
2017-08-22T06:46:21.118Z,1.50
2017-08-22T06:48:48.573Z,2.50
2017-08-22T06:51:16.034Z,1.67
2017-08-22T06:53:43.498Z,2.13
2017-08-22T06:56:10.950Z,1.40
2017-08-22T06:58:38.394Z,1.40
2017-08-22T07:01:05.874Z,2.10
2017-08-22T07:03:33.344Z,1.43
2017-08-22T07:06:00.834Z,1.60
2017-08-22T07:08:28.282Z,1.53
2017-08-22T07:10:55.754Z,2.90
2017-08-22T07:13:23.219Z,1.73
2017-08-22T07:15:50.713Z,1.37
2017-08-22T07:18:18.153Z,1.60
2017-08-22T07:20:45.613Z,1.43
2017-08-22T07:23:13.062Z,1.20
2017-08-22T07:25:40.554Z,1.20
2017-08-22T07:28:08.007Z,1.27
2017-08-22T07:30:35.464Z,1.20
2017-08-22T07:33:02.995Z,1.37
2017-08-22T07:35:30.452Z,1.30
2017-08-22T07:37:57.900Z,1.40
2017-08-22T07:40:25.381Z,1.00
2017-08-22T07:42:52.852Z,1.73
2017-08-22T07:45:20.346Z,1.10
2017-08-22T07:47:47.812Z,1.60
2017-08-22T07:50:15.257Z,1.63
2017-08-22T07:52:42.733Z,1.20
2017-08-22T07:55:10.185Z,1.10
2017-08-22T07:57:37.712Z,1.40
2017-08-22T08:00:05.170Z,1.10
2017-08-22T08:02:32.650Z,1.27
2017-08-22T08:05:00.097Z,2.40
2017-08-22T08:07:27.550Z,1.40
2017-08-22T08:09:55.021Z,1.37
2017-08-22T08:12:22.466Z,1.10
2017-08-22T08:14:49.921Z,1.07
2017-08-22T08:17:17.386Z,1.13
2017-08-22T08:19:44.833Z,1.00
2017-08-22T08:22:12.302Z,1.27
2017-08-22T08:24:39.777Z,1.30
2017-08-22T08:27:07.225Z,1.00
2017-08-22T08:29:34.708Z,0.97
2017-08-22T08:32:02.147Z,1.30
2017-08-22T08:34:29.632Z,1.00
2017-08-22T08:36:57.110Z,1.13
2017-08-22T08:39:24.590Z,1.20
2017-08-22T08:41:52.035Z,1.00
2017-08-22T08:44:19.499Z,1.10
2017-08-22T08:46:46.973Z,1.30
2017-08-22T08:49:14.448Z,1.00
2017-08-22T08:51:41.906Z,1.40
2017-08-22T08:54:09.362Z,1.03
2017-08-22T08:56:36.814Z,1.03
2017-08-22T08:59:04.279Z,1.20
2017-08-22T09:01:31.755Z,0.90
2017-08-22T09:03:59.206Z,1.07
2017-08-22T09:06:26.646Z,1.10
2017-08-22T09:08:54.146Z,0.90
2017-08-22T09:11:21.601Z,1.33
2017-08-22T09:13:49.049Z,0.90
2017-08-22T09:16:16.525Z,0.90
2017-08-22T09:18:43.992Z,1.10
2017-08-22T09:21:11.442Z,0.90
2017-08-22T09:23:38.944Z,0.97
2017-08-22T09:26:06.393Z,0.90
2017-08-22T09:28:33.899Z,0.97
2017-08-22T09:31:01.347Z,1.00
2017-08-22T09:33:28.803Z,1.00
2017-08-22T09:35:56.255Z,0.80
2017-08-22T09:38:23.701Z,1.10
2017-08-22T09:40:51.206Z,1.10
2017-08-22T09:43:18.673Z,1.03
2017-08-22T09:45:46.134Z,0.80
2017-08-22T09:48:13.604Z,0.83
2017-08-22T09:50:41.086Z,0.80
2017-08-22T09:53:08.536Z,1.10
2017-08-22T09:55:36.017Z,0.90
2017-08-22T09:58:03.493Z,1.10
2017-08-22T10:00:30.944Z,1.00
2017-08-22T10:02:58.414Z,0.80
2017-08-22T10:05:25.865Z,0.90
2017-08-22T10:07:53.313Z,1.00
2017-08-22T10:10:20.760Z,0.80
2017-08-22T10:12:48.210Z,0.83
2017-08-22T10:15:15.674Z,0.83
2017-08-22T10:17:43.141Z,1.00
2017-08-22T10:20:10.591Z,0.70
2017-08-22T10:22:38.051Z,0.80
2017-08-22T10:25:05.542Z,1.00
2017-08-22T10:27:32.995Z,0.80
2017-08-22T10:30:00.470Z,0.70
2017-08-22T10:32:27.937Z,1.10
2017-08-22T10:34:55.411Z,1.10
2017-08-22T10:37:22.857Z,0.77
2017-08-22T10:39:50.314Z,0.83
2017-08-22T10:42:17.752Z,0.80
2017-08-22T10:44:45.198Z,0.90
2017-08-22T10:47:12.651Z,0.70
2017-08-22T10:49:40.121Z,0.80
2017-08-22T10:52:07.566Z,1.07
2017-08-22T10:54:35.031Z,0.83
2017-08-22T10:57:02.486Z,0.90
2017-08-22T10:59:29.966Z,0.70
2017-08-22T11:01:57.444Z,0.60
2017-08-22T11:04:24.914Z,0.80
2017-08-22T11:06:52.402Z,0.70
2017-08-22T11:09:20.110Z,0.70
2017-08-22T11:11:47.787Z,0.87
2017-08-22T11:14:15.290Z,0.80
2017-08-22T11:16:42.735Z,0.90
2017-08-22T11:19:10.197Z,0.80
2017-08-22T11:21:37.678Z,0.73
2017-08-22T11:24:05.154Z,0.80
2017-08-22T11:26:32.599Z,0.90
2017-08-22T11:29:00.043Z,1.00
2017-08-22T11:31:27.502Z,0.80
2017-08-22T11:33:54.966Z,0.70
2017-08-22T11:36:22.424Z,0.90
2017-08-22T11:38:49.866Z,1.13
2017-08-22T11:41:17.337Z,1.00
2017-08-22T11:43:44.782Z,0.90
2017-08-22T11:46:12.251Z,0.80
2017-08-22T11:48:39.693Z,1.00
2017-08-22T11:51:07.150Z,0.73
2017-08-22T11:53:34.602Z,0.93
2017-08-22T11:56:02.057Z,0.70
2017-08-22T11:58:29.523Z,0.70
2017-08-22T12:00:56.998Z,1.03
2017-08-22T12:03:24.443Z,0.87
2017-08-22T12:05:51.896Z,0.80
2017-08-22T12:08:19.365Z,1.37
2017-08-22T12:10:46.833Z,0.90
2017-08-22T12:13:14.298Z,0.70
2017-08-22T12:15:41.762Z,0.73
2017-08-22T12:18:09.231Z,0.80
2017-08-22T12:20:36.695Z,0.70
2017-08-22T12:23:04.177Z,0.90
2017-08-22T12:25:31.654Z,0.70
2017-08-22T12:27:59.108Z,0.70
2017-08-22T12:30:26.559Z,1.53
2017-08-22T12:32:54.041Z,0.60
2017-08-22T12:35:21.538Z,0.70
2017-08-22T12:37:48.989Z,0.70
2017-08-22T12:40:16.471Z,0.70
2017-08-22T12:42:43.918Z,3.17
2017-08-22T12:45:11.374Z,0.70
2017-08-22T12:47:38.846Z,0.70
2017-08-22T12:50:06.304Z,0.73
2017-08-22T12:52:33.767Z,0.83
2017-08-22T12:55:01.242Z,0.70
2017-08-22T12:57:28.709Z,0.90
2017-08-22T12:59:56.152Z,0.70
2017-08-22T13:02:23.610Z,0.73
2017-08-22T13:04:51.064Z,0.60
2017-08-22T13:07:18.530Z,0.80
2017-08-22T13:09:46.004Z,0.70
2017-08-22T13:12:13.454Z,1.03
2017-08-22T13:14:40.906Z,0.73
2017-08-22T13:17:08.352Z,1.00
2017-08-22T13:19:35.798Z,0.60
2017-08-22T13:22:03.274Z,0.70
2017-08-22T13:24:30.737Z,0.70
2017-08-22T13:26:58.213Z,0.70
2017-08-22T13:29:25.671Z,0.70
2017-08-22T13:31:53.118Z,0.60
2017-08-22T13:34:20.577Z,0.60
2017-08-22T13:36:48.030Z,0.70
2017-08-22T13:39:15.499Z,0.77
2017-08-22T13:41:42.938Z,0.80
2017-08-22T13:44:10.397Z,0.70
2017-08-22T13:46:37.844Z,0.80
2017-08-22T13:49:05.313Z,0.93
2017-08-22T13:51:32.767Z,0.70
2017-08-22T13:54:00.222Z,0.80
2017-08-22T13:56:27.681Z,1.47
2017-08-22T13:58:55.156Z,0.67
2017-08-22T14:01:22.614Z,0.80
2017-08-22T14:03:50.071Z,0.70
2017-08-22T14:06:17.525Z,0.80
2017-08-22T14:08:44.990Z,0.70
2017-08-22T14:11:12.456Z,0.90
2017-08-22T14:13:39.910Z,0.80
2017-08-22T14:16:07.372Z,0.70
2017-08-22T14:18:34.842Z,1.20
2017-08-22T14:21:02.294Z,0.90
2017-08-22T14:23:29.762Z,0.70
2017-08-22T14:25:57.238Z,0.70
2017-08-22T14:28:24.686Z,0.70
2017-08-22T14:30:52.142Z,0.70
2017-08-22T14:33:19.602Z,0.70
2017-08-22T14:35:47.070Z,0.97
2017-08-22T14:38:14.568Z,0.70
2017-08-22T14:40:42.066Z,0.90
2017-08-22T14:43:09.527Z,0.70
2017-08-22T14:45:36.994Z,0.80
2017-08-22T14:48:04.438Z,0.80
2017-08-22T14:50:31.886Z,0.80
2017-08-22T14:52:59.345Z,0.70
2017-08-22T14:55:26.823Z,0.60
2017-08-22T14:57:54.288Z,0.70
2017-08-22T15:00:21.722Z,0.80
2017-08-22T15:02:49.198Z,1.07
2017-08-22T15:05:16.668Z,0.93
2017-08-22T15:07:44.115Z,0.80
2017-08-22T15:10:11.567Z,0.70
2017-08-22T15:12:39.029Z,0.80
2017-08-22T15:15:06.485Z,2.00
2017-08-22T15:17:33.995Z,1.00
2017-08-22T15:20:01.459Z,0.80
2017-08-22T15:22:28.901Z,0.90
2017-08-22T15:24:56.370Z,0.83
2017-08-22T15:27:23.825Z,0.73
2017-08-22T15:29:51.279Z,0.83
2017-08-22T15:32:18.730Z,0.70
2017-08-22T15:34:46.185Z,0.80
2017-08-22T15:37:13.648Z,2.83
2017-08-22T15:39:41.148Z,0.70
2017-08-22T15:42:08.602Z,0.90
2017-08-22T15:44:36.058Z,0.97
2017-08-22T15:47:03.510Z,1.10
2017-08-22T15:49:30.995Z,0.87
2017-08-22T15:51:58.470Z,1.30
2017-08-22T15:54:25.986Z,0.80
2017-08-22T15:56:53.465Z,0.93
2017-08-22T15:59:20.924Z,0.70
2017-08-22T16:01:48.379Z,0.83
2017-08-22T16:04:15.882Z,1.00
2017-08-22T16:06:43.335Z,0.80
2017-08-22T16:09:10.798Z,1.10
2017-08-22T16:11:38.251Z,0.80
2017-08-22T16:14:05.687Z,1.10
2017-08-22T16:16:33.144Z,1.03
2017-08-22T16:19:00.592Z,1.00
2017-08-22T16:21:28.042Z,1.17
2017-08-22T16:23:55.487Z,0.90
2017-08-22T16:26:22.957Z,0.80
2017-08-22T16:28:50.405Z,1.13
2017-08-22T16:31:17.875Z,0.80
2017-08-22T16:33:45.324Z,0.73
2017-08-22T16:36:12.795Z,0.83
2017-08-22T16:38:40.247Z,0.80
2017-08-22T16:41:07.697Z,0.97
2017-08-22T16:43:35.151Z,0.83
2017-08-22T16:46:02.609Z,0.80
2017-08-22T16:48:30.073Z,0.83
2017-08-22T16:50:57.553Z,0.90
2017-08-22T16:53:24.999Z,1.47
2017-08-22T16:55:52.458Z,0.90
2017-08-22T16:58:19.915Z,1.30
2017-08-22T17:00:47.381Z,0.80
2017-08-22T17:03:14.830Z,1.23
2017-08-22T17:05:42.277Z,0.90
2017-08-22T17:08:09.738Z,0.80
2017-08-22T17:10:37.209Z,0.80
2017-08-22T17:13:04.672Z,0.97
2017-08-22T17:15:32.125Z,1.33
2017-08-22T17:17:59.605Z,1.03
2017-08-22T17:20:27.090Z,0.80
2017-08-22T17:22:54.559Z,1.03
2017-08-22T17:25:22.014Z,0.90
2017-08-22T17:27:49.474Z,0.90
2017-08-22T17:30:16.939Z,1.10
2017-08-22T17:32:44.425Z,1.13
2017-08-22T17:35:11.888Z,1.00
2017-08-22T17:37:39.336Z,1.50
2017-08-22T17:40:06.792Z,0.90
2017-08-22T17:42:34.261Z,1.10
2017-08-22T17:45:01.780Z,1.07
2017-08-22T17:47:29.271Z,1.10
2017-08-22T17:49:56.739Z,0.97
2017-08-22T17:52:24.207Z,1.00
2017-08-22T17:54:52.429Z,1.40
2017-08-22T17:57:19.883Z,1.00
2017-08-22T17:59:47.338Z,1.20
2017-08-22T18:02:14.818Z,1.30
2017-08-22T18:04:42.263Z,2.27
2017-08-22T18:07:09.737Z,2.93
2017-08-22T18:09:37.209Z,0.93
2017-08-22T18:12:04.666Z,1.23
2017-08-22T18:14:32.117Z,1.00
2017-08-22T18:16:59.586Z,1.10
2017-08-22T18:19:27.053Z,1.20
2017-08-22T18:21:54.519Z,1.30
2017-08-22T18:24:21.977Z,1.23
2017-08-22T18:26:49.430Z,1.10
2017-08-22T18:29:16.912Z,1.00
2017-08-22T18:31:44.344Z,1.10
2017-08-22T18:34:11.800Z,1.23
2017-08-22T18:36:39.274Z,1.20
2017-08-22T18:39:06.727Z,1.30
2017-08-22T18:41:34.196Z,1.50
2017-08-22T18:46:35.567Z,1.20
2017-08-22T18:49:03.028Z,1.33
2017-08-22T18:51:30.486Z,1.20
2017-08-22T18:53:57.962Z,1.30
2017-08-22T18:56:25.437Z,1.67
2017-08-22T18:58:52.904Z,1.50
2017-08-22T19:01:20.346Z,1.53
2017-08-22T19:03:47.832Z,1.30
2017-08-22T19:06:15.295Z,1.40
2017-08-22T19:08:42.748Z,1.27
2017-08-22T19:11:10.202Z,1.60
2017-08-22T19:13:37.658Z,1.27
2017-08-22T19:16:05.114Z,1.43
2017-08-22T19:18:32.570Z,1.40
2017-08-22T19:21:00.014Z,1.67
2017-08-22T19:23:27.480Z,1.20
2017-08-22T19:25:54.961Z,1.33
2017-08-22T19:28:22.418Z,1.63
2017-08-22T19:30:49.894Z,1.37
2017-08-22T19:33:17.371Z,1.10
2017-08-22T19:35:44.822Z,0.93
2017-08-22T19:38:12.286Z,1.60
2017-08-22T19:40:39.744Z,1.37
2017-08-22T19:43:07.240Z,1.67
2017-08-22T19:45:34.698Z,1.40
2017-08-22T19:48:02.173Z,2.10
2017-08-22T19:50:29.621Z,1.00
2017-08-22T19:52:57.068Z,1.30
2017-08-22T19:55:24.534Z,1.33
2017-08-22T19:57:51.997Z,1.57
2017-08-22T20:00:19.470Z,1.23
2017-08-22T20:02:46.919Z,1.40
2017-08-22T20:05:14.372Z,1.30
2017-08-22T20:07:41.843Z,1.30
2017-08-22T20:10:09.311Z,1.30
2017-08-22T20:12:36.757Z,1.30
2017-08-22T20:15:04.230Z,1.30
2017-08-22T20:17:31.698Z,1.50
2017-08-22T20:19:59.137Z,1.33
2017-08-22T20:22:26.705Z,1.97
2017-08-22T20:24:54.175Z,1.40
2017-08-22T20:27:21.671Z,1.40
2017-08-22T20:29:49.141Z,2.00
2017-08-22T20:32:16.619Z,2.03
2017-08-22T20:34:44.073Z,1.90
2017-08-22T20:37:11.541Z,1.60
2017-08-22T20:39:39.021Z,1.80
2017-08-22T20:42:06.478Z,1.73
2017-08-22T20:44:33.926Z,1.93
2017-08-22T20:47:01.407Z,1.77
2017-08-22T20:49:28.874Z,2.00
2017-08-22T20:51:56.366Z,2.10
2017-08-22T20:54:23.823Z,2.00
2017-08-22T20:56:51.343Z,1.77
2017-08-22T20:59:18.798Z,1.80
2017-08-22T21:01:46.272Z,2.00
2017-08-22T21:04:13.714Z,1.90
2017-08-22T21:06:41.196Z,1.80
2017-08-22T21:09:08.641Z,2.10
2017-08-22T21:11:36.081Z,2.37
2017-08-22T21:14:03.558Z,2.40
2017-08-22T21:16:31.012Z,2.07
2017-08-22T21:18:58.483Z,1.80
2017-08-22T21:21:26.729Z,1.93
2017-08-22T21:23:54.218Z,3.27
2017-08-22T21:26:21.661Z,2.80
2017-08-22T21:28:49.141Z,2.00
2017-08-22T21:31:16.585Z,1.90
2017-08-22T21:33:44.055Z,3.43
2017-08-22T21:36:12.262Z,1.97
2017-08-22T21:38:39.722Z,1.77
2017-08-22T21:41:07.174Z,2.00
2017-08-22T21:43:34.619Z,2.30
2017-08-22T21:46:02.080Z,1.90
2017-08-22T21:48:29.540Z,2.10
2017-08-22T21:50:56.982Z,2.40
2017-08-22T21:53:24.448Z,1.80
2017-08-22T21:55:51.895Z,2.03
2017-08-22T21:58:19.356Z,2.00
2017-08-22T22:00:46.815Z,2.07
2017-08-22T22:03:14.269Z,4.50
2017-08-22T22:05:41.725Z,2.17
2017-08-22T22:08:09.181Z,2.10
2017-08-22T22:10:36.666Z,2.17
2017-08-22T22:13:04.163Z,2.20
2017-08-22T22:15:31.617Z,2.00
2017-08-22T22:17:59.111Z,1.83
2017-08-22T22:20:26.589Z,1.70
2017-08-22T22:22:54.058Z,2.13
2017-08-22T22:25:21.533Z,1.70
2017-08-22T22:27:49.001Z,2.33
2017-08-22T22:30:16.469Z,2.00
2017-08-22T22:32:43.933Z,2.13
2017-08-22T22:35:11.374Z,2.27
2017-08-22T22:37:38.849Z,1.90
2017-08-22T22:40:07.079Z,3.57
2017-08-22T22:42:34.534Z,1.87
2017-08-22T22:45:01.977Z,2.03
2017-08-22T22:47:29.463Z,1.97
2017-08-22T22:49:56.912Z,2.00
2017-08-22T22:52:24.386Z,2.00
2017-08-22T22:54:51.849Z,1.97
2017-08-22T22:57:19.318Z,1.90
2017-08-22T22:59:46.773Z,1.80
2017-08-22T23:02:14.230Z,1.80
2017-08-22T23:04:41.678Z,2.00
2017-08-22T23:07:09.137Z,1.77
2017-08-22T23:09:36.590Z,1.70
2017-08-22T23:12:04.050Z,2.23
2017-08-22T23:14:31.505Z,2.10
2017-08-22T23:16:58.979Z,2.00
2017-08-22T23:19:26.421Z,2.07
2017-08-22T23:21:53.887Z,1.93
2017-08-22T23:24:21.335Z,2.23
2017-08-22T23:26:48.798Z,2.97
2017-08-22T23:29:16.250Z,2.10
2017-08-22T23:31:43.718Z,1.80
2017-08-22T23:34:11.162Z,1.83
2017-08-22T23:36:38.618Z,2.37
2017-08-22T23:39:06.085Z,2.00
2017-08-22T23:41:33.530Z,1.87
2017-08-22T23:44:00.990Z,2.37
2017-08-22T23:46:28.458Z,1.83
2017-08-22T23:48:55.902Z,1.90
2017-08-22T23:51:23.383Z,1.90
2017-08-22T23:53:50.829Z,2.43
2017-08-22T23:56:18.275Z,2.00
2017-08-22T23:58:45.746Z,1.90
